Flight Track Log - Related Links

Times and Time Zones

All times are in EDT time to prevent confusion due to time zone crossing. See the SCX8873 flight status page for this flight to view local times or setup timezone preferences in your user account.

Time Position Orientation Groundspeed Altitude Reporting Facility
EDT Latitude Longitude Course Direction KTS MPH feet Rate Location/Type
Sat 04:06:07 PM 44.1350 -88.0950 187° South 368 423 15,600  Level FlightAware ADS-B
Sat 04:06:47 PM 44.0700 -88.1080 188° South 365 420 17,700 2,894 Climbing FlightAware ADS-B
Sat 04:07:32 PM 43.9920 -88.1220 187° South 370 426 19,700 2,400 Climbing FlightAware ADS-B
Sat 04:08:07 PM 43.9360 -88.1330 188° South 379 436 20,900 2,100 Climbing FlightAware ADS-B
Sat 04:08:52 PM 43.8510 -88.1490 188° South 390 449 22,500 1,835 Climbing FlightAware ADS-B
Sat 04:09:32 PM 43.7840 -88.1590 186° South 402 463 23,500 1,482 Climbing FlightAware ADS-B
Sat 04:10:17 PM 43.6990 -88.1320 167° South 416 479 24,600 1,412 Climbing FlightAware ADS-B
Sat 04:10:57 PM 43.6230 -88.0970 162° South 427 491 25,500 1,482 Climbing FlightAware ADS-B
Sat 04:11:42 PM 43.5340 -88.0580 162° South 435 501 26,700 1,059 Climbing FlightAware ADS-B
Sat 04:12:22 PM 43.4580 -88.0240 162° South 438 504 27,000 353 Climbing FlightAware ADS-B
Sat 04:13:07 PM 43.3740 -87.9860 162° South 439 505 27,200 706 Climbing FlightAware ADS-B
Sat 04:13:47 PM 43.2970 -87.9510 162° South 447 514 28,000 1,341 Climbing FlightAware ADS-B
Sat 04:14:32 PM 43.2100 -87.9120 162° South 450 518 29,100 1,976 Climbing FlightAware ADS-B
Sat 04:15:12 PM 43.1290 -87.8760 162° South 436 502 30,800 2,400 Climbing FlightAware ADS-B
Sat 04:15:47 PM 43.0610 -87.8460 162° South 424 488 32,100 2,047 Climbing FlightAware ADS-B
Sat 04:16:37 PM 42.9710 -87.8060 162° South 411 473 33,700 1,800 Climbing FlightAware ADS-B
Sat 04:17:17 PM 42.8980 -87.7740 162° South 405 466 34,800 1,412 Climbing FlightAware ADS-B
Sat 04:18:02 PM 42.8200 -87.7390 162° South 404 465 35,700 1,200 Climbing FlightAware ADS-B
Sat 04:18:42 PM 42.7460 -87.7070 162° South 402 463 36,500 1,125 Climbing FlightAware ADS-B
Sat 04:19:22 PM 42.6750 -87.6750 162° South 401 461 37,200 918 Climbing FlightAware ADS-B
Sat 04:20:07 PM 42.5970 -87.6410 162° South 401 461 37,800 847 Climbing FlightAware ADS-B
Sat 04:20:47 PM 42.5270 -87.6110 162° South 399 459 38,400 750 Climbing FlightAware ADS-B
Sat 04:21:27 PM 42.4600 -87.5820 162° South 399 459 38,800 424 Climbing FlightAware ADS-B
Sat 04:22:12 PM 42.3810 -87.5470 162° South 402 463 39,000 141 Climbing FlightAware ADS-B
Sat 04:22:52 PM 42.3040 -87.5140 162° South 404 465 39,000  Level FlightAware ADS-B
Sat 04:23:37 PM 42.2270 -87.4810 162° South 406 467 39,000  Level FlightAware ADS-B
Sat 04:24:17 PM 42.1540 -87.4490 162° South 406 467 39,000  Level FlightAware ADS-B
Sat 04:25:02 PM 42.0760 -87.4150 162° South 404 465 39,000  Level FlightAware ADS-B
Sat 04:25:42 PM 42.0010 -87.3840 163° South 405 466 39,000  Level FlightAware ADS-B
Sat 04:26:22 PM 41.9300 -87.3530 162° South 405 466 39,000  Level FlightAware ADS-B
Sat 04:27:07 PM 41.8510 -87.3200 163° South 405 466 39,000  Level FlightAware ADS-B
Sat 04:27:47 PM 41.7800 -87.2890 162° South 406 467 39,000  Level FlightAware ADS-B
Sat 04:28:27 PM 41.7080 -87.2580 162° South 406 467 39,000  Level FlightAware ADS-B
Sat 04:29:12 PM 41.6270 -87.2240 163° South 405 466 39,000  Level FlightAware ADS-B
Sat 04:29:52 PM 41.5540 -87.1930 162° South 406 467 39,000  Level FlightAware ADS-B
Sat 04:30:37 PM 41.4780 -87.1610 162° South 404 465 39,000  Level FlightAware ADS-B
Sat 04:31:17 PM 41.4060 -87.1310 163° South 404 465 39,000  Level FlightAware ADS-B
Sat 04:31:57 PM 41.3340 -87.1010 163° South 404 465 39,000  Level FlightAware ADS-B
Sat 04:32:42 PM 41.2560 -87.0680 162° South 403 464 39,000  Level FlightAware ADS-B
Sat 04:33:22 PM 41.1850 -87.0380 162° South 402 463 39,000  Level FlightAware ADS-B
Sat 04:34:07 PM 41.1010 -87.0040 163° South 401 461 39,000  Level FlightAware ADS-B
Sat 04:34:47 PM 41.0330 -86.9750 162° South 401 461 39,000  Level FlightAware ADS-B
Sat 04:35:27 PM 40.9600 -86.9450 163° South 401 461 39,000  Level FlightAware ADS-B
Sat 04:36:12 PM 40.8810 -86.9120 162° South 400 460 39,000  Level FlightAware ADS-B
Sat 04:36:52 PM 40.8080 -86.8820 163° South 400 460 39,000  Level FlightAware ADS-B
Sat 04:37:32 PM 40.7390 -86.8540 163° South 401 461 39,000  Level FlightAware ADS-B
Sat 04:38:17 PM 40.6620 -86.8220 163° South 405 466 39,000  Level FlightAware ADS-B
Sat 04:38:57 PM 40.5890 -86.7920 163° South 406 467 39,000  Level FlightAware ADS-B
Sat 04:39:42 PM 40.5110 -86.7600 163° South 408 470 39,000  Level FlightAware ADS-B
Sat 04:40:37 PM 40.4050 -86.7170 163° South 412 474 39,000  Level FlightAware ADS-B
Sat 04:41:17 PM 40.3360 -86.6890 163° South 413 475 39,000  Level FlightAware ADS-B
Sat 04:42:02 PM 40.2530 -86.6550 163° South 414 476 39,000  Level FlightAware ADS-B
Sat 04:42:37 PM 40.1920 -86.6310 163° South 415 478 39,000  Level FlightAware ADS-B
Sat 04:43:22 PM 40.1060 -86.5960 163° South 417 480 39,000  Level FlightAware ADS-B
Sat 04:44:07 PM 40.0200 -86.5620 163° South 419 482 39,000  Level FlightAware ADS-B
Sat 04:44:42 PM 39.9560 -86.5360 163° South 420 483 39,000  Level FlightAware ADS-B
Sat 04:45:32 PM 39.8630 -86.4980 163° South 419 482 39,000  Level FlightAware ADS-B
Sat 04:46:12 PM 39.7880 -86.4690 163° South 417 480 39,000  Level FlightAware ADS-B
Sat 04:46:57 PM 39.7090 -86.4370 163° South 417 480 39,000  Level FlightAware ADS-B
Sat 04:47:37 PM 39.6340 -86.4070 163° South 418 481 39,000  Level FlightAware ADS-B
Sat 04:48:17 PM 39.5600 -86.3780 163° South 419 482 39,000  Level FlightAware ADS-B
Sat 04:48:57 PM 39.4890 -86.3490 163° South 419 482 39,000  Level FlightAware ADS-B
Sat 04:49:42 PM 39.4030 -86.3150 163° South 417 480 39,000  Level FlightAware ADS-B
Sat 04:50:22 PM 39.3270 -86.2860 164° South 415 478 39,000  Level FlightAware ADS-B
Sat 04:51:07 PM 39.2430 -86.2530 163° South 416 479 39,000  Level FlightAware ADS-B
Sat 04:51:47 PM 39.1770 -86.2270 163° South 415 478 39,000  Level FlightAware ADS-B
Sat 04:52:32 PM 39.0890 -86.1920 163° South 415 478 39,000  Level FlightAware ADS-B
Sat 04:53:12 PM 39.0150 -86.1630 163° South 415 478 39,000  Level FlightAware ADS-B
Sat 04:53:57 PM 38.9320 -86.1310 163° South 413 475 39,000  Level FlightAware ADS-B
Sat 04:54:37 PM 38.8590 -86.1020 163° South 414 476 39,000  Level FlightAware ADS-B
Sat 04:55:17 PM 38.7860 -86.0740 163° South 412 474 39,000  Level FlightAware ADS-B
Sat 04:56:02 PM 38.7050 -86.0430 163° South 411 473 39,000  Level FlightAware ADS-B
Sat 04:56:42 PM 38.6320 -86.0150 163° South 410 472 39,000  Level FlightAware ADS-B
Sat 04:57:27 PM 38.5500 -85.9830 163° South 409 471 39,000  Level FlightAware ADS-B
Sat 04:58:07 PM 38.4770 -85.9550 163° South 409 471 39,000  Level FlightAware ADS-B
Sat 04:58:47 PM 38.4030 -85.9270 163° South 413 475 39,000  Level FlightAware ADS-B
Sat 04:59:32 PM 38.3240 -85.8960 163° South 414 476 39,000  Level FlightAware ADS-B
Sat 05:00:12 PM 38.2490 -85.8680 164° South 414 476 39,000  Level FlightAware ADS-B
Sat 05:00:57 PM 38.1650 -85.8350 163° South 416 479 39,000  Level FlightAware ADS-B
Sat 05:01:27 PM 38.1080 -85.8140 164° South 420 483 39,000  Level FlightAware ADS-B
Sat 05:02:12 PM 38.0270 -85.7830 163° South 421 484 39,000  Level FlightAware ADS-B
Sat 05:02:52 PM 37.9510 -85.7540 163° South 423 487 39,000  Level FlightAware ADS-B
Sat 05:03:37 PM 37.8660 -85.7220 163° South 427 491 39,000  Level FlightAware ADS-B
Sat 05:04:17 PM 37.7890 -85.6930 163° South 429 494 39,000  Level FlightAware ADS-B
Sat 05:05:02 PM 37.7060 -85.6620 164° South 431 496 39,000  Level FlightAware ADS-B
Sat 05:05:17 PM 37.6727 -85.6495 163° South 432 497 39,000  Level FlightAware ADS-B
Sat 05:05:49 PM 37.6109 -85.6262 163° South 433 498 39,000  Level FlightAware ADS-B
Sat 05:06:20 PM 37.5512 -85.6038 163° South 433 498 39,000  Level FlightAware ADS-B
Sat 05:06:53 PM 37.4885 -85.5803 163° South 431 496 39,000  Level FlightAware ADS-B
Sat 05:07:25 PM 37.4268 -85.5575 164° South 431 496 39,000  Level FlightAware ADS-B
Sat 05:07:59 PM 37.3632 -85.5338 164° South 432 497 39,000  Level FlightAware ADS-B
Sat 05:08:29 PM 37.3055 -85.5123 163° South 431 496 39,000  Level FlightAware ADS-B
Sat 05:09:00 PM 37.2453 -85.4900 164° South 428 493 39,000  Level FlightAware ADS-B
Sat 05:09:30 PM 37.1886 -85.4691 164° South 427 491 39,000  Level FlightAware ADS-B
Sat 05:10:01 PM 37.1312 -85.4479 164° South 427 491 39,000  Level FlightAware ADS-B
Sat 05:10:36 PM 37.0635 -85.4230 164° South 425 489 39,000  Level FlightAware ADS-B
Sat 05:11:06 PM 37.0071 -85.4022 164° South 422 486 39,000  Level FlightAware ADS-B
Sat 05:11:41 PM 36.9422 -85.3784 164° South 420 483 39,000  Level FlightAware ADS-B
Sat 05:12:17 PM 36.8763 -85.3540 164° South 420 483 39,000  Level FlightAware ADS-B
Sat 05:12:55 PM 36.8051 -85.3276 163° South 418 481 39,000  Level FlightAware ADS-B
Sat 05:13:30 PM 36.7404 -85.3040 164° South 417 480 39,000  Level FlightAware ADS-B
Sat 05:14:03 PM 36.6785 -85.2814 164° South 415 478 39,000  Level FlightAware ADS-B
Sat 05:14:47 PM 36.5976 -85.2520 164° South 415 478 39,000  Level FlightAware ADS-B
Sat 05:15:20 PM 36.5378 -85.2300 164° South 413 475 39,000  Level FlightAware ADS-B
Sat 05:15:52 PM 36.4830 -85.2100 164° South 412 474 39,000  Level FlightAware ADS-B
Sat 05:16:21 PM 36.4265 -85.1899 164° South 411 473 39,000  Level FlightAware ADS-B
Sat 05:16:51 PM 36.3707 -85.1694 164° South 411 473 39,000  Level FlightAware ADS-B
Sat 05:17:28 PM 36.3041 -85.1452 164° South 409 471 39,000  Level FlightAware ADS-B
Sat 05:18:00 PM 36.2460 -85.1241 164° South 409 471 39,000  Level FlightAware ADS-B
Sat 05:18:30 PM 36.1912 -85.1046 164° South 408 470 39,000  Level FlightAware ADS-B
Sat 05:19:01 PM 36.1356 -85.0846 164° South 407 468 39,000  Level FlightAware ADS-B
Sat 05:19:31 PM 36.0814 -85.0652 164° South 406 467 39,000  Level FlightAware ADS-B
Sat 05:20:03 PM 36.0240 -85.0446 164° South 406 467 39,000  Level FlightAware ADS-B
Sat 05:20:34 PM 35.9672 -85.0241 164° South 409 471 39,000  Level FlightAware ADS-B
Sat 05:21:05 PM 35.9116 -85.0042 164° South 411 473 39,000  Level FlightAware ADS-B
Sat 05:21:35 PM 35.8559 -84.9845 164° South 412 474 39,000  Level FlightAware ADS-B
Sat 05:22:07 PM 35.7974 -84.9636 164° South 412 474 39,000  Level FlightAware ADS-B
Sat 05:22:38 PM 35.7413 -84.9437 164° South 412 474 39,000  Level FlightAware ADS-B
Sat 05:23:08 PM 35.6857 -84.9239 164° South 414 476 39,000  Level FlightAware ADS-B
Sat 05:23:38 PM 35.6297 -84.9039 164° South 413 475 39,000  Level FlightAware ADS-B
Sat 05:24:09 PM 35.5742 -84.8841 164° South 414 476 39,000  Level FlightAware ADS-B
Sat 05:24:39 PM 35.5188 -84.8646 164° South 414 476 39,000  Level FlightAware ADS-B
Sat 05:25:09 PM 35.4627 -84.8450 164° South 414 476 39,000  Level FlightAware ADS-B
Sat 05:25:39 PM 35.4067 -84.8253 164° South 416 479 39,000  Level FlightAware ADS-B
Sat 05:26:10 PM 35.3509 -84.8055 164° South 416 479 39,000  Level FlightAware ADS-B
Sat 05:26:40 PM 35.2952 -84.7858 164° South 416 479 39,000  Level FlightAware ADS-B
Sat 05:27:11 PM 35.2376 -84.7654 164° South 417 480 39,000  Level FlightAware ADS-B
Sat 05:27:41 PM 35.1818 -84.7458 164° South 417 480 39,000  Level FlightAware ADS-B
Sat 05:28:11 PM 35.1254 -84.7260 164° South 417 480 39,000  Level FlightAware ADS-B
Sat 05:28:42 PM 35.0690 -84.7063 164° South 419 482 39,000  Level FlightAware ADS-B
Sat 05:29:12 PM 35.0121 -84.6865 164° South 421 484 39,000  Level FlightAware ADS-B
Sat 05:29:42 PM 34.9558 -84.6669 164° South 422 486 39,000  Level FlightAware ADS-B
Sat 05:30:12 PM 34.8990 -84.6470 164° South 423 487 39,000  Level FlightAware ADS-B
Sat 05:33:02 PM 34.5830 -84.5370 164° South 39,000  Level FlightAware ADS-B
Sat 05:33:29 PM 34.5297 -84.5190 164° South 421 484 39,000  Level FlightAware ADS-B
Sat 05:33:59 PM 34.4737 -84.4998 164° South 418 481 39,000  Level FlightAware ADS-B
Sat 05:34:29 PM 34.4178 -84.4805 164° South 416 479 39,000  Level FlightAware ADS-B
Sat 05:34:59 PM 34.3620 -84.4613 164° South 415 478 39,000  Level FlightAware ADS-B
Sat 05:35:33 PM 34.2994 -84.4398 164° South 415 478 39,000  Level FlightAware ADS-B
Sat 05:36:14 PM 34.2233 -84.4137 164° South 415 478 39,000  Level FlightAware ADS-B
Sat 05:36:57 PM 34.1460 -84.3870 164° South 417 480 39,000  Level FlightAware ADS-B
Sat 05:37:42 PM 34.0640 -84.3590 164° South 418 481 39,000  Level FlightAware ADS-B
Sat 05:38:22 PM 33.9920 -84.3350 165° South 420 483 39,000  Level FlightAware ADS-B
Sat 05:39:07 PM 33.9050 -84.3050 164° South 419 482 39,000  Level FlightAware ADS-B
Sat 05:39:21 PM 33.8745 -84.2944 164° South 428 493 39,000  Level FlightAware ADS-B
Sat 05:39:51 PM 33.8161 -84.2747 164° South 429 494 39,000  Level FlightAware ADS-B
Sat 05:40:21 PM 33.7584 -84.2552 164° South 430 495 39,000  Level FlightAware ADS-B
Sat 05:40:52 PM 33.6996 -84.2351 164° South 432 497 39,000  Level FlightAware ADS-B
Sat 05:41:25 PM 33.6366 -84.2138 164° South 436 502 39,000  Level FlightAware ADS-B
Sat 05:41:56 PM 33.5751 -84.1930 164° South 439 505 39,000  Level FlightAware ADS-B
Sat 05:42:28 PM 33.5117 -84.1718 164° South 443 510 39,000  Level FlightAware ADS-B
Sat 05:43:00 PM 33.4483 -84.1504 164° South 445 512 39,000  Level FlightAware ADS-B
Sat 05:43:32 PM 33.3870 -84.1300 164° South 447 514 39,000  Level FlightAware ADS-B
Sat 05:44:07 PM 33.3210 -84.1080 164° South 448 516 39,000  Level FlightAware ADS-B
Sat 05:44:52 PM 33.2310 -84.0770 164° South 452 520 39,000  Level FlightAware ADS-B
Sat 05:45:37 PM 33.1400 -84.0470 165° South 453 521 39,000  Level FlightAware ADS-B
Sat 05:46:32 PM 33.0270 -84.0090 164° South 455 524 39,000  Level FlightAware ADS-B
Sat 05:47:27 PM 32.9280 -83.9760 164° South 454 522 39,000  Level FlightAware ADS-B
Sat 05:48:07 PM 32.8590 -83.9520 164° South 454 522 39,000  Level FlightAware ADS-B
Sat 05:48:47 PM 32.7900 -83.9290 164° South 454 522 39,000  Level FlightAware ADS-B
Sat 05:49:27 PM 32.7220 -83.9050 163° South 454 522 39,000  Level FlightAware ADS-B
Sat 05:50:17 PM 32.6360 -83.8760 164° South 454 522 39,000  Level FlightAware ADS-B
Sat 05:50:57 PM 32.5670 -83.8530 164° South 454 522 39,000  Level FlightAware ADS-B
Sat 05:51:37 PM 32.4990 -83.8290 163° South 454 522 39,000  Level FlightAware ADS-B
Sat 05:52:17 PM 32.4300 -83.8060 164° South 454 522 39,000  Level FlightAware ADS-B
Sat 05:52:57 PM 32.3610 -83.7830 164° South 454 522 39,000  Level FlightAware ADS-B
Sat 05:53:47 PM 32.2750 -83.7540 164° South 454 522 39,000  Level FlightAware ADS-B
Sat 05:54:27 PM 32.2070 -83.7300 163° South 454 522 39,000  Level FlightAware ADS-B
Sat 05:55:07 PM 32.1380 -83.7070 164° South 454 522 39,000  Level FlightAware ADS-B
Sat 05:55:47 PM 32.0700 -83.6840 164° South 454 522 39,000  Level FlightAware ADS-B
Sat 05:56:27 PM 32.0010 -83.6610 164° South 454 522 39,000  Level FlightAware ADS-B
Sat 05:57:07 PM 31.7492 -83.5889 164° South 446 513 39,000  Level Jacksonville Center
Sat 05:58:07 PM 31.6344 -83.5442 162° South 459 528 39,000  Level Jacksonville Center
Sat 05:59:07 PM 31.5222 -83.4725 151° Southeast 459 528 39,000  Level Jacksonville Center
Sat 06:00:07 PM 31.4097 -83.3964 150° Southeast 459 528 39,000  Level Jacksonville Center
Sat 06:01:07 PM 31.2994 -83.3231 150° Southeast 464 534 39,000 -600 Level Jacksonville Center
Sat 06:02:07 PM 31.1847 -83.2472 151° Southeast 464 534 37,800 -1,950 Descending Jacksonville Center
Sat 06:03:07 PM 31.0742 -83.1714 150° Southeast 464 534 35,100 -2,800 Descending Jacksonville Center
Sat 06:04:07 PM 30.9594 -83.0986 151° Southeast 464 534 32,200 -2,600 Descending Jacksonville Center
Sat 06:05:07 PM 30.8489 -83.0233 150° Southeast 464 534 29,900 -2,400 Descending Jacksonville Center
Sat 06:06:07 PM 30.7300 -82.9481 151° Southeast 459 528 27,400 -1,500 Descending Jacksonville Center
Sat 06:07:07 PM 30.6236 -82.8806 151° Southeast 448 516 26,900 -250 Descending Jacksonville Center
Sat 06:08:07 PM 30.5253 -82.8106 148° Southeast 439 505 26,900 50 Level Jacksonville Center
Sat 06:09:07 PM 30.4189 -82.7408 151° Southeast 434 499 27,000 -268 Climbing Jacksonville Center
Sat 06:15:12 PM 29.7680 -82.3550 151° Southeast 424 488 25,000 -296 Descending FlightAware ADS-B
Sat 06:15:52 PM 29.7020 -82.3230 157° South 424 488 25,000  Level FlightAware ADS-B
Sat 06:16:37 PM 29.6110 -82.2790 157° South 422 486 25,000  Level FlightAware ADS-B
Sat 06:17:37 PM 29.5120 -82.2310 157° South 420 483 25,000  Level FlightAware ADS-B
Sat 06:18:17 PM 29.4510 -82.2010 157° South 420 483 25,000 -3,450 Level FlightAware ADS-B
Sat 06:18:57 PM 29.3630 -82.1600 158° South 408 470 20,400 -3,600 Descending FlightAware ADS-B
Sat 06:19:52 PM 29.2710 -82.1160 157° South 402 463 19,300 -2,280 Descending FlightAware ADS-B
Sat 06:20:37 PM 29.1900 -82.0770 157° South 385 443 16,600 -2,520 Descending FlightAware ADS-B
Sat 06:21:32 PM 29.1020 -82.0350 157° South 390 449 15,100 -2,348 Descending FlightAware ADS-B
Sat 06:22:32 PM 29.0040 -81.9890 158° South 374 430 12,100 -2,340 Descending FlightAware ADS-B
Sat 06:23:12 PM 28.9390 -81.9580 157° South 350 403 11,200 -975 Descending FlightAware ADS-B
Sat 06:23:52 PM 28.8840 -81.9260 153° Southeast 320 368 10,800 -640 Descending FlightAware ADS-B
Sat 06:24:27 PM 28.8550 -81.8820 127° Southeast 316 364 10,400 -800 Descending FlightAware ADS-B
Sat 06:24:52 PM 28.8330 -81.8450 124° Southeast 312 359 10,000 -554 Descending FlightAware ADS-B
Sat 06:25:32 PM 28.8040 -81.7940 123° Southeast 309 356 9,800 -240 Descending FlightAware ADS-B
Sat 06:25:42 PM 28.7980 -81.7830 122° Southeast 309 356 9,800 -1,600 Level FlightAware ADS-B
Sat 06:25:57 PM 28.7980 -81.7540 90° East 8,900 -2,057 Descending FlightAware ADS-B
Sat 06:26:17 PM 28.7920 -81.7300 106° East 285 328 8,600 -933 Descending FlightAware ADS-B
Sat 06:26:42 PM 28.7820 -81.6880 105° East 273 314 8,200 -975 Descending FlightAware ADS-B
Sat 06:27:12 PM 28.7740 -81.6560 106° East 7,800 -982 Descending FlightAware ADS-B
Sat 06:27:37 PM 28.7640 -81.6170 106° East 263 303 7,300 -1,200 Descending FlightAware ADS-B
Sat 06:28:02 PM 28.7550 -81.5820 106° East 259 298 6,800 -400 Descending FlightAware ADS-B
Sat 06:28:37 PM 28.7440 -81.5380 106° East 246 283 6,900  Climbing FlightAware ADS-B
Sat 06:29:02 PM 28.7360 -81.5050 105° East 247 284 6,800 -327 Descending FlightAware ADS-B
Sat 06:29:32 PM 28.7270 -81.4680 105° East 244 281 6,600 -655 Descending FlightAware ADS-B
Sat 06:29:57 PM 28.7190 -81.4370 106° East 242 278 6,200 -1,091 Descending FlightAware ADS-B
Sat 06:30:27 PM 28.7110 -81.4030 105° East 240 276 5,600 -1,333 Descending FlightAware ADS-B
Sat 06:30:42 PM 28.7020 -81.3850 120° Southeast 233 268 5,200 -1,200 Descending FlightAware ADS-B
Sat 06:31:07 PM 28.6830 -81.3620 133° Southeast 225 259 4,800 -764 Descending FlightAware ADS-B
Sat 06:31:37 PM 28.6630 -81.3390 135° Southeast 201 231 4,500 -667 Descending FlightAware ADS-B
Sat 06:31:52 PM 28.6520 -81.3300 144° Southeast 201 231 4,300 -960 Descending FlightAware ADS-B
Sat 06:32:02 PM 28.6420 -81.3280 170° South 194 223 4,100 -900 Descending FlightAware ADS-B
Sat 06:32:32 PM 28.6170 -81.3290 182° South 181 208 3,700 -900 Descending FlightAware ADS-B
Sat 06:33:02 PM 28.5910 -81.3290 180° South 180 207 3,200 -1,200 Descending FlightAware ADS-B
Sat 06:33:27 PM 28.5710 -81.3280 177° South 191 220 2,600 -1,200 Descending FlightAware ADS-B
Sat 06:33:57 PM 28.5420 -81.3280 180° South 181 208 2,100 -655 Descending FlightAware ADS-B
Sat 06:34:22 PM 28.5210 -81.3270 178° South 175 201 2,000 -600 Descending FlightAware ADS-B
Sat 06:34:47 PM 28.5010 -81.3280 183° South 177 204 1,600 -1,040 Descending FlightAware ADS-B
Sat 06:35:37 PM 28.4640 -81.3270 179° South 149 171 700 -1,108 Descending FlightAware ADS-B
Sat 06:35:52 PM 28.4530 -81.3270 180° South 147 169 400 -1,200 Descending FlightAware ADS-B

Login

Don't have an account? Register now (free) for customized features, flight alerts, and more!